Terminal Aerodrome Forecast
Issued by NWS

Home | Current Version | Previous Version | Text Only | Print | Product List | Glossary Off
Versions: 1 2 3 4 5 6 7 8 9 10 11 12 13 14 15 16 17 18 19

000
FTUS43 KBIS 162333
TAFDIK
TAF
KDIK 162333Z 1700/1724 21006KT P6SM SKC
     FM170800 25008KT P6SM BKN200 WS020/29045KT
     FM171700 27015KT P6SM SCT250=

USA.gov is the U.S. government's official web portal to all federal, state and local government web resources and services.